ULLIUMKK

Guest
Details From ULLI - Saint Petersburg Pulkovo
To UMKK - Khrabrovo
Flight Number -
Tags Generated
Created
Modified
Stats Distance 430 nm / 797 km
Max Altitude 0 ft / 0 m
Waypoints 3
Social Downloads 2
Likes 0
Share VATSIM

Download

Looking for another format? Having issues loading an existing format? Contact us
Advertisement - Login to hide

Notes

Generated

Route

ULLI UMKK UMKK

ID Type Via Altitude Latitude Longitude Leg Dist Tot Dist Heading (true) Name
O ULLI APT - 0 ft / 0 m 59.80973˚ 30.24537˚ - 0 nm - -
UMKK FIX - 0 ft / 0 m 54.89000˚ 20.59500˚ 429 nm 429 nm 231° / 223° -
O UMKK APT - 0 ft / 0 m 54.88548˚ 20.57484˚ 0 nm 430 nm 249° / 249° -

Altitude Profile

Advertisement - Login to hide

Weather


0- 5 10 15 20 25 30 35+ Temperature / ° C

Clouds and Precipitation
Forecast for 2017-12-12 00:00 UTC. Updated 2 hours ago

Ground ~20,000 ft ~40,000 ft Winds

ULLI

Details ICAO ULLI (LED)
Name Saint Petersburg Pulkovo
Region Russia
Timezone Europe/Moscow (UTC+3.0)
Stats Elevation 78 ft / 24 m (AMSL)
Location 59.800292° 30.262504°
Runways 2
Magnetic Variation 10.695° E

METAR

ULLI 120100Z 13004MPS 9999 OVC010 M01/M03 Q1005 R10R/290050 NOSIG

Decode

TAF

TAF ULLI 112258Z 1200/1224 14003G08MPS 6000 OVC011 TEMPO 1200/1208 18005G10MPS 3100 BR BKN007 OVC011 FM120800 13007G14MPS 3100 -SN BLSN OVC011 TEMPO 1209/1212 13008G16MPS 1200 SHSN BLSN OVC004 BKN015CB TEMPO 1212/1224 15010G18MPS 1200 SHSNRA -FZRA OVC004 BKN015CB

Decode

Departure Runways

ID Width Length Bearing (true) Bearing (mag) Surface Threshold Offset Overrun Length
10L 197 ft / 60 m 11,115 ft / 3,388 m 106.38° 95.69° Concrete 0 ft / 0 m 235 ft / 72 m
10R 197 ft / 60 m 12,365 ft / 3,769 m 106.40° 95.71° Concrete 0 ft / 0 m 220 ft / 67 m
28L 197 ft / 60 m 12,365 ft / 3,769 m 286.46° 275.77° Concrete 0 ft / 0 m 260 ft / 79 m
28R 197 ft / 60 m 11,115 ft / 3,388 m 286.44° 275.75° Concrete 0 ft / 0 m 240 ft / 73 m

UMKK

Details ICAO UMKK (KGD)
Name KHRABROVO
Region Belarus and Russia (Kaliningrad Oblast)
Timezone Europe/Kaliningrad (UTC+2.0)
Stats Elevation 42 ft / 13 m (AMSL)
Location 54.890049° 20.592635°
Runways 1
Magnetic Variation 6.166° E

METAR

UMKK 120100Z 14005MPS 110V170 9999 SCT028 04/02 Q0990 R24/29//55 NOSIG RMK QFE741/0989

Decode

TAF

TAF TAF UMKK 112300Z 1200/1224 15005G10MPS 9999 BKN011 OVC020 BECMG 1203/1205 18006G12MPS BECMG 1209/1211 22010G15MPS TEMPO 1209/1224 25012G20MPS 3100 -SHRA BKN012CB

Decode

Destination Runways

ID Width Length Bearing (true) Bearing (mag) Surface Threshold Offset Overrun Length
06 148 ft / 45 m 8,180 ft / 2,493 m 65.93° 59.76° Concrete 0 ft / 0 m 0 ft / 0 m
24 148 ft / 45 m 8,180 ft / 2,493 m 245.96° 239.79° Concrete 0 ft / 0 m 0 ft / 0 m

Approach Navaids

Runway Type Ident Frequency Range Bearing (true) Bearing (mag) Slope Elevation
24 Localiser IKR 109.50 MHz 18 nm / 33 km 245.00° 238.83° - 42 ft / 13 m (AMSL)
24 Glidescope IKR 109.50 MHz 10 nm / 19 km 245.95° 239.78° 2.70° 42 ft / 13 m (AMSL)

Popular Alternatives